createdAt,value
2019-03-23T01:53:31.143Z,217.07
2019-03-23T01:56:29.980Z,190.83
2019-03-23T01:59:22.638Z,238.53
2019-03-23T02:02:04.077Z,185.93
2019-03-23T02:05:01.144Z,218.50
2019-03-23T02:08:04.345Z,218.17
2019-03-23T02:14:24.287Z,372.23
2019-03-23T03:53:36.849Z,203.63
2019-03-23T03:56:05.235Z,201.53
2019-03-23T03:58:33.311Z,202.70
2019-03-23T04:01:01.442Z,197.13
2019-03-23T04:03:29.722Z,192.47
2019-03-23T04:05:57.839Z,211.80
2019-03-23T04:08:26.396Z,200.77
2019-03-23T04:10:54.463Z,192.70
2019-03-23T04:13:22.893Z,182.53
2019-03-23T04:15:51.530Z,176.37
2019-03-23T04:18:19.996Z,188.73
2019-03-23T04:20:48.013Z,174.30
2019-03-23T04:23:16.071Z,191.87
2019-03-23T04:25:44.090Z,196.67
2019-03-23T04:28:12.227Z,201.50
2019-03-23T04:30:40.655Z,207.77
2019-03-23T04:33:08.919Z,210.17
2019-03-23T04:35:37.423Z,213.93
2019-03-23T04:38:05.505Z,206.03
2019-03-23T04:40:33.510Z,203.80
2019-03-23T04:43:01.780Z,185.37
2019-03-23T04:45:30.201Z,186.10
2019-03-23T04:47:58.649Z,192.93
2019-03-23T04:50:27.141Z,196.17
2019-03-23T04:52:55.631Z,183.80
2019-03-23T04:55:23.866Z,184.77
2019-03-23T04:57:52.224Z,186.70
2019-03-23T05:00:20.866Z,185.53
2019-03-23T05:02:49.216Z,169.60
2019-03-23T05:05:17.697Z,182.63
2019-03-23T05:07:46.291Z,179.90
2019-03-23T05:10:14.782Z,182.37
2019-03-23T05:12:43.260Z,190.63
2019-03-23T05:15:11.842Z,192.60
2019-03-23T05:17:39.972Z,179.87
2019-03-23T05:20:08.805Z,185.67
2019-03-23T05:22:37.136Z,192.90
2019-03-23T05:25:06.310Z,203.17
2019-03-23T05:27:35.082Z,195.70
2019-03-23T05:30:03.791Z,199.20
2019-03-23T05:32:34.455Z,185.57
2019-03-23T05:35:06.027Z,209.57
2019-03-23T05:37:34.590Z,215.27
2019-03-23T05:40:05.364Z,173.90
2019-03-23T05:42:34.013Z,179.40
2019-03-23T05:45:02.128Z,184.70
2019-03-23T05:47:30.506Z,181.23
2019-03-23T05:49:59.029Z,173.80
2019-03-23T05:52:27.694Z,176.27
2019-03-23T05:54:56.368Z,189.43
2019-03-23T05:57:24.701Z,176.10
2019-03-23T05:59:53.454Z,185.10
2019-03-23T06:02:23.233Z,176.50
2019-03-23T06:04:52.025Z,164.00
2019-03-23T06:07:20.722Z,153.30
2019-03-23T06:09:48.939Z,154.70
2019-03-23T06:12:17.852Z,152.03
2019-03-23T06:14:46.598Z,134.20
2019-03-23T06:17:16.037Z,143.97
2019-03-23T06:19:50.866Z,146.70
2019-03-23T06:22:24.316Z,159.87
2019-03-23T06:24:53.326Z,153.13
2019-03-23T06:27:23.750Z,156.50
2019-03-23T06:29:53.065Z,152.60
2019-03-23T06:32:22.324Z,161.63
2019-03-23T06:34:50.746Z,139.00
2019-03-23T06:37:21.693Z,140.17
2019-03-23T06:39:52.600Z,143.57
2019-03-23T06:42:21.409Z,144.13
2019-03-23T06:45:06.986Z,127.83
2019-03-23T06:50:25.655Z,130.37
2019-03-23T06:53:05.850Z,128.47
2019-03-23T06:55:34.645Z,129.00
2019-03-23T06:58:06.644Z,132.47
2019-03-23T07:00:47.365Z,118.73
2019-03-23T07:03:50.872Z,123.67
2019-03-23T07:06:19.867Z,132.03
2019-03-23T07:11:56.010Z,137.00
2019-03-23T07:14:50.321Z,125.77
2019-03-23T07:18:04.054Z,122.80
2019-03-23T07:21:03.270Z,127.70
2019-03-23T07:24:49.470Z,130.00
2019-03-23T07:26:32.965Z,131.00
2019-03-23T07:29:16.848Z,122.93
2019-03-23T07:39:04.984Z,117.73
2019-03-23T07:41:49.353Z,114.23
2019-03-23T07:45:09.490Z,118.63
2019-03-23T07:53:35.591Z,108.60
2019-03-23T07:56:12.929Z,116.77
2019-03-23T07:58:42.250Z,112.67
2019-03-23T08:01:21.927Z,114.33
2019-03-23T08:03:55.210Z,106.40
2019-03-23T08:06:29.627Z,109.83
2019-03-23T08:09:08.140Z,112.70
2019-03-23T08:18:30.853Z,107.17
2019-03-23T08:21:02.922Z,111.67
2019-03-23T08:23:31.616Z,116.00
2019-03-23T08:26:00.354Z,107.13
2019-03-23T08:28:32.548Z,110.40
2019-03-23T08:31:01.539Z,106.57
2019-03-23T08:33:30.611Z,104.43
2019-03-23T08:35:59.459Z,104.77
2019-03-23T08:38:42.056Z,104.60
2019-03-23T08:41:10.680Z,109.10
2019-03-23T08:43:39.873Z,105.87
2019-03-23T08:46:08.597Z,98.90
2019-03-23T08:48:37.244Z,109.53
2019-03-23T08:51:05.385Z,99.03
2019-03-23T08:53:40.419Z,109.57
2019-03-23T08:56:15.486Z,102.63
2019-03-23T08:58:44.548Z,103.73
2019-03-23T09:01:14.306Z,107.07
2019-03-23T09:03:51.998Z,112.90
2019-03-23T09:06:17.049Z,100.93
2019-03-23T09:08:53.539Z,105.03
2019-03-23T09:11:22.342Z,108.60
2019-03-23T09:13:52.084Z,108.67
2019-03-23T09:16:23.749Z,102.10
2019-03-23T09:18:52.361Z,106.80
2019-03-23T09:21:20.979Z,103.83
2019-03-23T09:23:50.950Z,102.00
2019-03-23T09:26:19.593Z,109.43
2019-03-23T09:28:54.314Z,109.90
2019-03-23T09:31:28.082Z,99.90
2019-03-23T09:33:56.397Z,102.97
2019-03-23T09:36:25.614Z,100.53
2019-03-23T09:38:56.031Z,104.30
2019-03-23T09:41:24.538Z,103.33
2019-03-23T09:43:59.063Z,100.23
2019-03-23T09:46:31.109Z,108.80
2019-03-23T09:49:09.560Z,107.43
2019-03-23T09:51:38.548Z,101.23
2019-03-23T09:54:07.657Z,94.73
2019-03-23T09:56:41.077Z,95.77
2019-03-23T09:59:10.225Z,100.17
2019-03-23T10:01:47.973Z,98.60
2019-03-23T10:04:16.602Z,98.87
2019-03-23T10:06:45.450Z,95.33
2019-03-23T10:09:13.838Z,95.37
2019-03-23T10:11:51.728Z,94.97
2019-03-23T10:14:21.420Z,93.50
2019-03-23T10:16:58.325Z,95.37
2019-03-23T10:19:32.212Z,101.07
2019-03-23T10:22:00.975Z,98.37
2019-03-23T10:24:30.188Z,94.93
2019-03-23T10:30:06.264Z,98.40
2019-03-23T10:32:34.738Z,92.53
2019-03-23T10:35:05.068Z,100.53
2019-03-23T10:37:37.602Z,91.53
2019-03-23T10:40:07.462Z,94.53
2019-03-23T10:42:44.890Z,92.23
2019-03-23T10:45:16.161Z,95.60
2019-03-23T10:48:17.090Z,94.93
2019-03-23T10:50:46.369Z,101.33
2019-03-23T10:53:23.163Z,92.27
2019-03-23T10:55:51.589Z,93.73
2019-03-23T10:58:21.607Z,92.27
2019-03-23T11:00:52.475Z,97.13
2019-03-23T11:03:25.648Z,95.50
2019-03-23T11:05:57.945Z,87.70
2019-03-23T11:08:29.892Z,91.60
2019-03-23T11:11:02.730Z,92.90
2019-03-23T11:13:33.309Z,85.20
2019-03-23T11:16:05.019Z,86.03
2019-03-23T11:18:39.142Z,81.17
2019-03-23T11:21:08.181Z,86.13
2019-03-23T11:29:51.884Z,87.37
2019-03-23T11:32:20.624Z,90.47
2019-03-23T11:34:56.602Z,86.90
2019-03-23T11:37:26.003Z,84.90
2019-03-23T11:40:12.766Z,89.97
2019-03-23T11:43:12.092Z,87.77
2019-03-23T11:48:37.720Z,82.80
2019-03-23T11:54:25.312Z,84.20
2019-03-23T11:56:56.555Z,87.20
2019-03-23T11:59:32.902Z,85.00
2019-03-23T12:02:05.448Z,89.90
2019-03-23T12:04:47.095Z,89.00
2019-03-23T12:07:22.163Z,92.43
2019-03-23T12:10:10.748Z,87.27
2019-03-23T12:18:51.072Z,96.87
2019-03-23T12:21:25.857Z,98.13
2019-03-23T12:24:19.441Z,102.10
2019-03-23T12:30:08.721Z,104.90
2019-03-23T12:32:44.350Z,100.47
2019-03-23T12:35:23.323Z,94.83
2019-03-23T12:37:51.959Z,100.23
2019-03-23T12:40:24.826Z,85.37
2019-03-23T12:42:53.995Z,95.57
2019-03-23T12:45:28.363Z,93.73
2019-03-23T12:48:07.487Z,92.13
2019-03-23T12:50:41.950Z,89.20
2019-03-23T12:53:14.161Z,85.13
2019-03-23T12:55:50.988Z,89.97
2019-03-23T12:58:25.243Z,91.40
2019-03-23T13:01:25.481Z,78.17
2019-03-23T13:03:54.894Z,78.50
2019-03-23T13:06:50.474Z,86.27
2019-03-23T13:09:26.541Z,77.03
2019-03-23T13:11:56.710Z,72.80
2019-03-23T13:14:29.134Z,66.03
2019-03-23T13:20:08.773Z,61.60
2019-03-23T13:22:36.257Z,61.30
2019-03-23T13:32:02.378Z,31.20
2019-03-23T13:34:31.542Z,23.33
2019-03-23T13:37:02.495Z,19.93
2019-03-23T13:39:36.832Z,18.27
2019-03-23T13:42:05.726Z,15.40
2019-03-23T13:44:35.134Z,15.07
2019-03-23T13:47:08.788Z,13.93
2019-03-23T13:49:39.877Z,18.77
2019-03-23T13:52:11.243Z,18.83
2019-03-23T13:54:39.875Z,18.00
2019-03-23T13:57:15.282Z,14.67
2019-03-23T13:59:44.210Z,15.87
2019-03-23T14:02:12.846Z,13.90
2019-03-23T14:04:43.593Z,12.10
2019-03-23T14:07:12.169Z,14.53
2019-03-23T14:09:40.884Z,19.90
2019-03-23T14:12:12.912Z,15.17
2019-03-23T14:14:41.619Z,14.50
2019-03-23T14:17:11.495Z,16.97
2019-03-23T14:19:55.533Z,14.63
2019-03-23T14:22:27.264Z,11.90
2019-03-23T14:25:16.399Z,11.97
2019-03-23T14:27:45.071Z,17.57
2019-03-23T14:30:15.046Z,9.97
2019-03-23T14:32:50.694Z,11.63
2019-03-23T14:35:19.817Z,11.47
2019-03-23T14:37:49.135Z,10.63
2019-03-23T14:40:18.183Z,9.10
2019-03-23T14:42:46.584Z,11.37
2019-03-23T14:45:28.021Z,10.57
2019-03-23T14:47:56.269Z,8.50
2019-03-23T14:50:42.711Z,8.90
2019-03-23T14:53:24.149Z,9.67
2019-03-23T14:55:52.865Z,11.80
2019-03-23T14:58:29.999Z,10.60
2019-03-23T15:01:10.479Z,15.37
2019-03-23T15:03:39.293Z,11.57
2019-03-23T15:06:07.841Z,11.50
2019-03-23T15:08:37.394Z,10.10
2019-03-23T15:11:43.717Z,11.43
2019-03-23T15:14:12.814Z,10.73
2019-03-23T15:16:52.736Z,11.27
2019-03-23T15:19:21.405Z,11.13
2019-03-23T15:21:55.116Z,13.47
2019-03-23T15:24:29.361Z,16.17
2019-03-23T15:26:57.757Z,13.00
2019-03-23T15:29:29.457Z,12.67
2019-03-23T15:31:57.880Z,15.37
2019-03-23T15:34:40.748Z,12.47
2019-03-23T15:37:21.557Z,12.77
2019-03-23T15:39:51.371Z,14.47
2019-03-23T15:42:24.653Z,11.93
2019-03-23T15:44:50.495Z,11.53
2019-03-23T15:47:19.163Z,16.10
2019-03-23T15:50:06.054Z,14.13
2019-03-23T15:52:44.074Z,15.23
2019-03-23T15:55:48.849Z,17.43
2019-03-23T15:58:30.381Z,18.10
2019-03-23T16:06:56.941Z,15.93
2019-03-23T16:09:25.449Z,20.67
2019-03-23T16:11:54.493Z,15.17
2019-03-23T16:14:29.813Z,23.13
2019-03-23T16:16:58.524Z,15.37
2019-03-23T16:19:50.548Z,26.10
2019-03-23T16:22:22.484Z,28.73
2019-03-23T16:24:51.532Z,26.60
2019-03-23T16:27:37.835Z,20.03
2019-03-23T16:30:14.397Z,16.53
2019-03-23T16:32:43.703Z,22.23
2019-03-23T16:35:17.656Z,19.37
2019-03-23T16:37:56.292Z,18.27
2019-03-23T16:40:25.549Z,22.40
2019-03-23T16:42:54.003Z,26.63
2019-03-23T16:45:22.831Z,23.40
2019-03-23T16:47:57.943Z,24.90
2019-03-23T16:50:26.524Z,18.03
2019-03-23T16:52:56.535Z,18.20
2019-03-23T16:55:25.601Z,17.43
2019-03-23T16:57:55.907Z,20.07
2019-03-23T17:00:43.830Z,17.80
2019-03-23T17:03:15.108Z,16.00
2019-03-23T17:05:47.759Z,23.07
2019-03-23T17:08:29.853Z,31.73
2019-03-23T17:10:58.543Z,39.97
2019-03-23T17:13:41.727Z,22.67
2019-03-23T17:16:11.068Z,23.43
2019-03-23T17:21:50.560Z,29.67
2019-03-23T17:24:21.726Z,21.80
2019-03-23T17:30:00.789Z,25.23
2019-03-23T17:32:34.303Z,23.57
2019-03-23T17:35:09.854Z,25.17
2019-03-23T17:37:51.066Z,29.60
2019-03-23T17:40:21.805Z,25.23
2019-03-23T17:43:20.631Z,19.27
2019-03-23T17:45:51.467Z,24.50
2019-03-23T17:48:21.733Z,24.87
2019-03-23T17:51:04.331Z,25.80
2019-03-23T17:53:33.451Z,31.23
2019-03-23T17:56:35.315Z,26.97
2019-03-23T18:02:09.575Z,26.17
2019-03-23T18:07:53.592Z,24.67
2019-03-23T18:10:36.323Z,27.63
2019-03-23T18:13:24.795Z,26.27
2019-03-23T18:17:42.562Z,29.53
2019-03-23T18:19:16.836Z,30.60
2019-03-23T18:21:49.534Z,29.63
2019-03-23T18:24:29.202Z,26.27
2019-03-23T18:33:27.126Z,26.20
2019-03-23T18:36:29.064Z,31.40
2019-03-23T18:39:03.335Z,29.63
2019-03-23T18:41:32.920Z,27.53
2019-03-23T18:44:26.197Z,24.40
2019-03-23T18:47:01.036Z,28.87
2019-03-23T18:49:30.995Z,28.30
2019-03-23T18:52:19.434Z,26.60
2019-03-23T18:55:21.568Z,33.30
2019-03-23T19:00:56.305Z,38.53
2019-03-23T19:03:29.241Z,31.60
2019-03-23T19:05:57.865Z,26.13
2019-03-23T19:08:29.790Z,32.27
2019-03-23T19:11:12.222Z,29.33
2019-03-23T19:14:03.066Z,32.53
2019-03-23T19:16:56.220Z,35.20
2019-03-23T19:19:38.785Z,36.63
2019-03-23T19:22:15.123Z,32.83
2019-03-23T19:24:47.786Z,40.73
2019-03-23T21:13:16.712Z,32.73
2019-03-23T21:15:45.581Z,36.57
2019-03-23T21:18:20.361Z,31.20
2019-03-23T21:20:49.502Z,37.73
2019-03-23T21:23:25.972Z,32.53
2019-03-23T21:25:54.844Z,30.67
2019-03-23T21:28:25.727Z,36.07
2019-03-23T21:30:57.329Z,37.23
2019-03-23T21:33:31.817Z,33.80
2019-03-23T21:36:08.486Z,36.50
2019-03-23T21:38:37.540Z,33.97
2019-03-23T21:41:30.631Z,35.77
2019-03-23T21:44:04.446Z,34.83
2019-03-23T21:46:38.135Z,33.80
2019-03-23T21:49:06.903Z,36.47
2019-03-23T21:51:38.730Z,32.47
2019-03-23T21:54:07.480Z,39.77
2019-03-23T21:56:35.713Z,34.17
2019-03-23T21:59:10.032Z,34.87
2019-03-23T22:01:38.860Z,32.27
2019-03-23T22:04:07.750Z,37.87
2019-03-23T22:06:36.593Z,38.40
2019-03-23T22:09:07.020Z,27.83
2019-03-23T22:11:37.804Z,31.20
2019-03-23T22:14:07.474Z,31.67
2019-03-23T22:16:36.267Z,33.93
2019-03-23T22:19:05.049Z,39.53
2019-03-23T22:21:33.616Z,33.30
2019-03-23T22:24:04.629Z,29.53
2019-03-23T22:26:33.636Z,35.73
2019-03-23T22:29:02.577Z,30.63
2019-03-23T22:31:36.075Z,35.03
2019-03-23T22:34:04.754Z,31.00
2019-03-23T22:36:33.101Z,30.23
2019-03-23T22:39:07.394Z,44.00
2019-03-23T22:41:35.564Z,32.57
2019-03-23T22:44:21.279Z,31.80
2019-03-23T22:46:49.935Z,35.30
2019-03-23T22:49:31.747Z,31.40
2019-03-23T22:52:03.362Z,37.87
2019-03-23T22:54:32.912Z,36.63
2019-03-23T22:57:01.461Z,34.40
2019-03-23T22:59:30.921Z,39.43
2019-03-23T23:02:02.189Z,40.20
2019-03-23T23:04:30.797Z,32.83
2019-03-23T23:06:59.413Z,35.40
2019-03-23T23:09:31.459Z,36.63
2019-03-23T23:12:00.165Z,38.57
2019-03-23T23:14:28.704Z,39.63
2019-03-23T23:16:57.954Z,35.97
2019-03-23T23:19:26.558Z,41.70
2019-03-23T23:21:55.022Z,35.80
2019-03-23T23:24:23.574Z,34.20
2019-03-23T23:27:00.463Z,29.30
2019-03-23T23:29:29.472Z,33.50
2019-03-23T23:32:00.882Z,39.63
2019-03-23T23:34:29.620Z,32.13
2019-03-23T23:36:58.520Z,40.03
2019-03-23T23:43:08.026Z,41.20
2019-03-23T23:45:39.151Z,36.40
2019-03-23T23:48:08.520Z,33.90
2019-03-23T23:50:36.821Z,33.90
2019-03-23T23:53:05.568Z,34.43
2019-03-23T23:55:36.371Z,30.50
2019-03-23T23:58:04.927Z,37.97
